sensor_id;sensor_type;location;lat;lon;timestamp;temperature;humidity
51476;DHT22;37554;50.362;7.568;2023-10-08T00:00:46;21.80;58.00
51476;DHT22;37554;50.362;7.568;2023-10-08T00:03:15;21.80;58.00
51476;DHT22;37554;50.362;7.568;2023-10-08T00:05:41;21.80;58.00
51476;DHT22;37554;50.362;7.568;2023-10-08T00:08:07;21.80;58.00
51476;DHT22;37554;50.362;7.568;2023-10-08T00:10:40;21.80;58.00
51476;DHT22;37554;50.362;7.568;2023-10-08T00:13:10;21.80;58.00
51476;DHT22;37554;50.362;7.568;2023-10-08T00:15:38;21.80;58.00
51476;DHT22;37554;50.362;7.568;2023-10-08T00:18:07;21.80;58.00
51476;DHT22;37554;50.362;7.568;2023-10-08T00:20:37;21.80;58.00
51476;DHT22;37554;50.362;7.568;2023-10-08T00:23:21;21.80;58.10
51476;DHT22;37554;50.362;7.568;2023-10-08T00:25:47;21.80;58.10
51476;DHT22;37554;50.362;7.568;2023-10-08T00:28:14;21.80;58.10
51476;DHT22;37554;50.362;7.568;2023-10-08T00:30:40;21.80;58.10
51476;DHT22;37554;50.362;7.568;2023-10-08T00:33:07;21.80;58.10
51476;DHT22;37554;50.362;7.568;2023-10-08T00:35:40;21.70;58.10
51476;DHT22;37554;50.362;7.568;2023-10-08T00:38:07;21.70;58.10
51476;DHT22;37554;50.362;7.568;2023-10-08T00:40:40;21.70;58.10
51476;DHT22;37554;50.362;7.568;2023-10-08T00:43:09;21.70;58.20
51476;DHT22;37554;50.362;7.568;2023-10-08T00:45:38;21.70;58.10
51476;DHT22;37554;50.362;7.568;2023-10-08T00:48:12;21.70;58.20
51476;DHT22;37554;50.362;7.568;2023-10-08T00:50:47;21.70;58.20
51476;DHT22;37554;50.362;7.568;2023-10-08T00:53:13;21.70;58.20
51476;DHT22;37554;50.362;7.568;2023-10-08T00:55:49;21.70;58.20
51476;DHT22;37554;50.362;7.568;2023-10-08T00:58:30;21.70;58.20
51476;DHT22;37554;50.362;7.568;2023-10-08T01:00:59;21.70;58.20
51476;DHT22;37554;50.362;7.568;2023-10-08T01:03:28;21.70;58.30
51476;DHT22;37554;50.362;7.568;2023-10-08T01:05:54;21.70;58.90
51476;DHT22;37554;50.362;7.568;2023-10-08T01:08:22;21.70;58.30
51476;DHT22;37554;50.362;7.568;2023-10-08T01:11:20;21.70;58.30
51476;DHT22;37554;50.362;7.568;2023-10-08T01:14:05;21.60;58.30
51476;DHT22;37554;50.362;7.568;2023-10-08T01:16:33;21.60;58.40
51476;DHT22;37554;50.362;7.568;2023-10-08T01:19:00;21.60;58.30
51476;DHT22;37554;50.362;7.568;2023-10-08T01:21:28;21.60;58.30
51476;DHT22;37554;50.362;7.568;2023-10-08T01:24:03;21.60;58.40
51476;DHT22;37554;50.362;7.568;2023-10-08T01:26:33;21.60;58.40
51476;DHT22;37554;50.362;7.568;2023-10-08T01:28:59;21.60;58.40
51476;DHT22;37554;50.362;7.568;2023-10-08T01:31:29;21.60;58.50
51476;DHT22;37554;50.362;7.568;2023-10-08T01:33:55;21.60;58.40
51476;DHT22;37554;50.362;7.568;2023-10-08T01:36:23;21.50;58.40
51476;DHT22;37554;50.362;7.568;2023-10-08T01:38:50;21.50;58.50
51476;DHT22;37554;50.362;7.568;2023-10-08T01:41:17;21.50;58.50
51476;DHT22;37554;50.362;7.568;2023-10-08T01:43:47;21.50;58.50
51476;DHT22;37554;50.362;7.568;2023-10-08T01:46:13;21.50;58.50
51476;DHT22;37554;50.362;7.568;2023-10-08T01:48:40;21.50;58.50
51476;DHT22;37554;50.362;7.568;2023-10-08T01:51:10;21.50;58.60
51476;DHT22;37554;50.362;7.568;2023-10-08T01:53:40;21.50;58.60
51476;DHT22;37554;50.362;7.568;2023-10-08T01:56:06;21.40;58.60
51476;DHT22;37554;50.362;7.568;2023-10-08T01:58:32;21.40;58.60
51476;DHT22;37554;50.362;7.568;2023-10-08T02:00:59;21.40;58.60
51476;DHT22;37554;50.362;7.568;2023-10-08T02:03:26;21.40;58.70
51476;DHT22;37554;50.362;7.568;2023-10-08T02:05:53;21.40;58.70
51476;DHT22;37554;50.362;7.568;2023-10-08T02:08:25;21.40;58.70
51476;DHT22;37554;50.362;7.568;2023-10-08T02:10:52;21.40;59.30
51476;DHT22;37554;50.362;7.568;2023-10-08T02:13:18;21.40;58.70
51476;DHT22;37554;50.362;7.568;2023-10-08T02:15:45;21.40;58.80
51476;DHT22;37554;50.362;7.568;2023-10-08T02:18:11;21.30;58.70
51476;DHT22;37554;50.362;7.568;2023-10-08T02:20:39;21.30;58.70
51476;DHT22;37554;50.362;7.568;2023-10-08T02:23:05;21.30;58.70
51476;DHT22;37554;50.362;7.568;2023-10-08T02:25:31;21.30;58.80
51476;DHT22;37554;50.362;7.568;2023-10-08T02:27:56;21.30;58.80
51476;DHT22;37554;50.362;7.568;2023-10-08T02:30:23;21.30;58.80
51476;DHT22;37554;50.362;7.568;2023-10-08T02:32:49;21.30;58.80
51476;DHT22;37554;50.362;7.568;2023-10-08T02:35:15;21.30;58.90
51476;DHT22;37554;50.362;7.568;2023-10-08T02:37:41;21.30;58.90
51476;DHT22;37554;50.362;7.568;2023-10-08T02:40:08;21.20;58.90
51476;DHT22;37554;50.362;7.568;2023-10-08T02:42:53;21.20;58.90
51476;DHT22;37554;50.362;7.568;2023-10-08T02:45:28;21.20;58.90
51476;DHT22;37554;50.362;7.568;2023-10-08T02:47:55;21.20;58.90
51476;DHT22;37554;50.362;7.568;2023-10-08T02:50:21;21.20;58.90
51476;DHT22;37554;50.362;7.568;2023-10-08T02:52:51;21.20;59.00
51476;DHT22;37554;50.362;7.568;2023-10-08T02:55:19;21.20;59.00
51476;DHT22;37554;50.362;7.568;2023-10-08T02:58:00;21.20;59.00
51476;DHT22;37554;50.362;7.568;2023-10-08T03:00:27;21.20;59.10
51476;DHT22;37554;50.362;7.568;2023-10-08T03:02:56;21.20;59.20
51476;DHT22;37554;50.362;7.568;2023-10-08T03:05:22;21.20;59.10
51476;DHT22;37554;50.362;7.568;2023-10-08T03:07:48;21.10;59.10
51476;DHT22;37554;50.362;7.568;2023-10-08T03:10:17;21.10;59.20
51476;DHT22;37554;50.362;7.568;2023-10-08T03:12:46;21.10;59.10
51476;DHT22;37554;50.362;7.568;2023-10-08T03:15:12;21.10;59.20
51476;DHT22;37554;50.362;7.568;2023-10-08T03:17:55;21.10;59.20
51476;DHT22;37554;50.362;7.568;2023-10-08T03:20:22;21.10;59.20
51476;DHT22;37554;50.362;7.568;2023-10-08T03:23:06;21.10;59.20
51476;DHT22;37554;50.362;7.568;2023-10-08T03:25:37;21.10;59.30
51476;DHT22;37554;50.362;7.568;2023-10-08T03:28:08;21.00;59.20
51476;DHT22;37554;50.362;7.568;2023-10-08T03:30:34;21.00;59.20
51476;DHT22;37554;50.362;7.568;2023-10-08T03:33:13;21.00;59.30
51476;DHT22;37554;50.362;7.568;2023-10-08T03:35:47;21.00;59.30
51476;DHT22;37554;50.362;7.568;2023-10-08T03:38:14;21.00;59.30
51476;DHT22;37554;50.362;7.568;2023-10-08T03:40:58;21.00;59.30
51476;DHT22;37554;50.362;7.568;2023-10-08T03:43:31;21.00;59.40
51476;DHT22;37554;50.362;7.568;2023-10-08T03:46:07;20.90;59.30
51476;DHT22;37554;50.362;7.568;2023-10-08T03:48:41;20.90;59.40
51476;DHT22;37554;50.362;7.568;2023-10-08T03:51:10;20.90;59.40
51476;DHT22;37554;50.362;7.568;2023-10-08T03:53:38;20.90;59.40
51476;DHT22;37554;50.362;7.568;2023-10-08T03:56:23;20.90;59.40
51476;DHT22;37554;50.362;7.568;2023-10-08T03:58:50;20.90;59.50
51476;DHT22;37554;50.362;7.568;2023-10-08T04:01:19;20.90;59.50
51476;DHT22;37554;50.362;7.568;2023-10-08T04:03:46;20.90;59.60
51476;DHT22;37554;50.362;7.568;2023-10-08T04:06:20;20.80;59.50
51476;DHT22;37554;50.362;7.568;2023-10-08T04:09:16;20.80;59.60
51476;DHT22;37554;50.362;7.568;2023-10-08T04:11:51;20.80;59.70
51476;DHT22;37554;50.362;7.568;2023-10-08T04:14:21;20.80;59.70
51476;DHT22;37554;50.362;7.568;2023-10-08T04:16:48;20.80;59.70
51476;DHT22;37554;50.362;7.568;2023-10-08T04:19:18;20.80;59.70
51476;DHT22;37554;50.362;7.568;2023-10-08T04:21:44;20.80;59.80
51476;DHT22;37554;50.362;7.568;2023-10-08T04:24:11;20.80;59.80
51476;DHT22;37554;50.362;7.568;2023-10-08T04:26:40;20.80;59.90
51476;DHT22;37554;50.362;7.568;2023-10-08T04:29:06;20.80;59.90
51476;DHT22;37554;50.362;7.568;2023-10-08T04:31:32;20.80;60.00
51476;DHT22;37554;50.362;7.568;2023-10-08T04:34:07;20.80;60.00
51476;DHT22;37554;50.362;7.568;2023-10-08T04:36:44;20.80;60.00
51476;DHT22;37554;50.362;7.568;2023-10-08T04:39:20;20.70;60.00
51476;DHT22;37554;50.362;7.568;2023-10-08T04:41:52;20.70;60.00
51476;DHT22;37554;50.362;7.568;2023-10-08T04:44:23;20.70;60.10
51476;DHT22;37554;50.362;7.568;2023-10-08T04:46:51;20.70;60.10
51476;DHT22;37554;50.362;7.568;2023-10-08T04:49:18;20.70;60.20
51476;DHT22;37554;50.362;7.568;2023-10-08T04:51:55;20.70;60.20
51476;DHT22;37554;50.362;7.568;2023-10-08T04:54:26;20.70;60.30
51476;DHT22;37554;50.362;7.568;2023-10-08T04:56:59;20.70;60.30
51476;DHT22;37554;50.362;7.568;2023-10-08T04:59:28;20.70;60.30
51476;DHT22;37554;50.362;7.568;2023-10-08T05:02:04;20.70;60.30
51476;DHT22;37554;50.362;7.568;2023-10-08T05:04:39;20.70;60.40
51476;DHT22;37554;50.362;7.568;2023-10-08T05:07:25;20.70;60.40
51476;DHT22;37554;50.362;7.568;2023-10-08T05:10:09;20.60;60.40
51476;DHT22;37554;50.362;7.568;2023-10-08T05:12:35;20.60;60.40
51476;DHT22;37554;50.362;7.568;2023-10-08T05:15:11;20.60;60.40
51476;DHT22;37554;50.362;7.568;2023-10-08T05:17:44;20.60;60.40
51476;DHT22;37554;50.362;7.568;2023-10-08T05:20:19;20.60;60.60
51476;DHT22;37554;50.362;7.568;2023-10-08T05:23:10;20.60;60.60
51476;DHT22;37554;50.362;7.568;2023-10-08T05:25:56;20.60;60.60
51476;DHT22;37554;50.362;7.568;2023-10-08T05:28:30;20.60;60.60
51476;DHT22;37554;50.362;7.568;2023-10-08T05:31:07;20.60;60.60
51476;DHT22;37554;50.362;7.568;2023-10-08T05:33:39;20.60;60.70
51476;DHT22;37554;50.362;7.568;2023-10-08T05:36:10;20.60;60.60
51476;DHT22;37554;50.362;7.568;2023-10-08T05:38:46;20.60;60.60
51476;DHT22;37554;50.362;7.568;2023-10-08T05:41:26;20.60;60.70
51476;DHT22;37554;50.362;7.568;2023-10-08T05:44:05;20.50;60.60
51476;DHT22;37554;50.362;7.568;2023-10-08T05:46:49;20.50;60.60
51476;DHT22;37554;50.362;7.568;2023-10-08T05:49:21;20.50;60.70
51476;DHT22;37554;50.362;7.568;2023-10-08T05:51:56;20.50;60.70
51476;DHT22;37554;50.362;7.568;2023-10-08T05:54:23;20.50;60.90
51476;DHT22;37554;50.362;7.568;2023-10-08T05:59:40;20.50;60.70
51476;DHT22;37554;50.362;7.568;2023-10-08T06:02:40;20.50;60.70
51476;DHT22;37554;50.362;7.568;2023-10-08T06:05:10;20.50;60.60
51476;DHT22;37554;50.362;7.568;2023-10-08T06:07:42;20.50;60.70
51476;DHT22;37554;50.362;7.568;2023-10-08T06:10:30;20.50;60.70
51476;DHT22;37554;50.362;7.568;2023-10-08T06:15:48;20.50;60.70
51476;DHT22;37554;50.362;7.568;2023-10-08T06:18:32;20.50;60.60
51476;DHT22;37554;50.362;7.568;2023-10-08T06:21:00;20.50;60.60
51476;DHT22;37554;50.362;7.568;2023-10-08T06:23:27;20.50;60.60
51476;DHT22;37554;50.362;7.568;2023-10-08T06:25:55;20.50;60.60
51476;DHT22;37554;50.362;7.568;2023-10-08T06:28:37;20.50;60.60
51476;DHT22;37554;50.362;7.568;2023-10-08T06:31:04;20.50;60.50
51476;DHT22;37554;50.362;7.568;2023-10-08T06:33:38;20.50;60.50
51476;DHT22;37554;50.362;7.568;2023-10-08T06:36:04;20.50;60.50
51476;DHT22;37554;50.362;7.568;2023-10-08T06:38:42;20.50;60.50
51476;DHT22;37554;50.362;7.568;2023-10-08T06:41:11;20.60;60.50
51476;DHT22;37554;50.362;7.568;2023-10-08T06:43:44;20.60;60.60
51476;DHT22;37554;50.362;7.568;2023-10-08T06:46:28;20.60;60.50
51476;DHT22;37554;50.362;7.568;2023-10-08T06:48:58;20.60;60.50
51476;DHT22;37554;50.362;7.568;2023-10-08T06:51:23;20.60;60.50
51476;DHT22;37554;50.362;7.568;2023-10-08T06:53:51;20.60;60.50
51476;DHT22;37554;50.362;7.568;2023-10-08T06:56:17;20.60;60.50
51476;DHT22;37554;50.362;7.568;2023-10-08T06:58:45;20.60;60.60
51476;DHT22;37554;50.362;7.568;2023-10-08T07:01:15;20.60;60.60
51476;DHT22;37554;50.362;7.568;2023-10-08T07:03:49;20.70;60.60
51476;DHT22;37554;50.362;7.568;2023-10-08T07:06:16;20.70;60.60
51476;DHT22;37554;50.362;7.568;2023-10-08T07:08:43;20.70;60.60
51476;DHT22;37554;50.362;7.568;2023-10-08T07:11:12;20.70;60.60
51476;DHT22;37554;50.362;7.568;2023-10-08T07:13:39;20.70;60.60
51476;DHT22;37554;50.362;7.568;2023-10-08T07:16:07;20.70;60.60
51476;DHT22;37554;50.362;7.568;2023-10-08T07:18:37;20.70;61.30
51476;DHT22;37554;50.362;7.568;2023-10-08T07:21:03;20.40;62.50
51476;DHT22;37554;50.362;7.568;2023-10-08T07:23:38;20.20;63.50
51476;DHT22;37554;50.362;7.568;2023-10-08T07:26:25;20.00;64.30
51476;DHT22;37554;50.362;7.568;2023-10-08T07:28:51;19.80;64.90
51476;DHT22;37554;50.362;7.568;2023-10-08T07:31:22;19.90;65.00
51476;DHT22;37554;50.362;7.568;2023-10-08T07:36:44;20.20;64.50
51476;DHT22;37554;50.362;7.568;2023-10-08T07:39:10;20.30;64.00
51476;DHT22;37554;50.362;7.568;2023-10-08T07:41:53;20.40;63.60
51476;DHT22;37554;50.362;7.568;2023-10-08T07:44:20;20.50;63.20
51476;DHT22;37554;50.362;7.568;2023-10-08T07:46:51;20.60;63.00
51476;DHT22;37554;50.362;7.568;2023-10-08T07:49:18;20.60;62.80
51476;DHT22;37554;50.362;7.568;2023-10-08T07:51:43;20.70;62.60
51476;DHT22;37554;50.362;7.568;2023-10-08T07:54:22;20.70;62.50
51476;DHT22;37554;50.362;7.568;2023-10-08T07:56:49;20.70;62.40
51476;DHT22;37554;50.362;7.568;2023-10-08T07:59:17;20.80;62.40
51476;DHT22;37554;50.362;7.568;2023-10-08T08:01:43;20.80;62.20
51476;DHT22;37554;50.362;7.568;2023-10-08T08:04:12;20.90;62.20
51476;DHT22;37554;50.362;7.568;2023-10-08T08:06:50;20.90;62.10
51476;DHT22;37554;50.362;7.568;2023-10-08T08:09:18;20.90;61.90
51476;DHT22;37554;50.362;7.568;2023-10-08T08:11:49;21.00;61.80
51476;DHT22;37554;50.362;7.568;2023-10-08T08:14:15;21.10;61.70
51476;DHT22;37554;50.362;7.568;2023-10-08T08:16:50;21.10;61.60
51476;DHT22;37554;50.362;7.568;2023-10-08T08:19:16;21.10;61.50
51476;DHT22;37554;50.362;7.568;2023-10-08T08:21:45;21.20;61.60
51476;DHT22;37554;50.362;7.568;2023-10-08T08:24:12;21.20;61.60
51476;DHT22;37554;50.362;7.568;2023-10-08T08:26:39;21.20;61.60
51476;DHT22;37554;50.362;7.568;2023-10-08T08:29:06;21.20;61.50
51476;DHT22;37554;50.362;7.568;2023-10-08T08:31:40;21.20;61.40
51476;DHT22;37554;50.362;7.568;2023-10-08T08:34:11;21.30;61.40
51476;DHT22;37554;50.362;7.568;2023-10-08T08:36:45;21.30;61.20
51476;DHT22;37554;50.362;7.568;2023-10-08T08:39:12;21.40;61.10
51476;DHT22;37554;50.362;7.568;2023-10-08T08:41:50;21.50;61.10
51476;DHT22;37554;50.362;7.568;2023-10-08T08:44:18;21.50;61.00
51476;DHT22;37554;50.362;7.568;2023-10-08T08:46:45;21.50;60.90
51476;DHT22;37554;50.362;7.568;2023-10-08T08:49:12;21.60;60.90
51476;DHT22;37554;50.362;7.568;2023-10-08T08:51:38;21.60;60.70
51476;DHT22;37554;50.362;7.568;2023-10-08T08:54:05;21.70;60.50
51476;DHT22;37554;50.362;7.568;2023-10-08T08:56:40;21.70;60.40
51476;DHT22;37554;50.362;7.568;2023-10-08T08:59:08;21.80;60.30
51476;DHT22;37554;50.362;7.568;2023-10-08T09:01:38;21.80;60.10
51476;DHT22;37554;50.362;7.568;2023-10-08T09:04:04;21.90;60.00
51476;DHT22;37554;50.362;7.568;2023-10-08T09:06:37;21.90;59.90
51476;DHT22;37554;50.362;7.568;2023-10-08T09:09:06;22.00;59.90
51476;DHT22;37554;50.362;7.568;2023-10-08T09:11:48;22.00;59.70
51476;DHT22;37554;50.362;7.568;2023-10-08T09:14:27;22.10;59.60
51476;DHT22;37554;50.362;7.568;2023-10-08T09:16:56;22.30;59.60
51476;DHT22;37554;50.362;7.568;2023-10-08T09:19:22;22.30;59.40
51476;DHT22;37554;50.362;7.568;2023-10-08T09:22:04;22.40;59.40
51476;DHT22;37554;50.362;7.568;2023-10-08T09:24:31;22.50;59.30
51476;DHT22;37554;50.362;7.568;2023-10-08T09:26:59;22.60;59.00
51476;DHT22;37554;50.362;7.568;2023-10-08T09:29:25;22.70;59.50
51476;DHT22;37554;50.362;7.568;2023-10-08T09:31:59;22.80;58.80
51476;DHT22;37554;50.362;7.568;2023-10-08T09:34:29;22.80;58.80
51476;DHT22;37554;50.362;7.568;2023-10-08T09:36:56;22.80;58.90
51476;DHT22;37554;50.362;7.568;2023-10-08T09:39:22;22.80;58.60
51476;DHT22;37554;50.362;7.568;2023-10-08T09:41:54;22.90;58.50
51476;DHT22;37554;50.362;7.568;2023-10-08T09:44:22;23.00;58.50
51476;DHT22;37554;50.362;7.568;2023-10-08T09:46:53;23.00;58.30
51476;DHT22;37554;50.362;7.568;2023-10-08T09:49:29;23.10;58.20
51476;DHT22;37554;50.362;7.568;2023-10-08T09:51:59;23.20;58.00
51476;DHT22;37554;50.362;7.568;2023-10-08T09:54:29;23.30;58.00
51476;DHT22;37554;50.362;7.568;2023-10-08T09:56:58;23.30;57.90
51476;DHT22;37554;50.362;7.568;2023-10-08T09:59:27;23.20;57.80
51476;DHT22;37554;50.362;7.568;2023-10-08T10:01:55;23.30;57.90
51476;DHT22;37554;50.362;7.568;2023-10-08T10:04:25;23.50;57.70
51476;DHT22;37554;50.362;7.568;2023-10-08T10:06:51;23.80;57.50
51476;DHT22;37554;50.362;7.568;2023-10-08T10:09:20;24.10;57.00
51476;DHT22;37554;50.362;7.568;2023-10-08T10:11:51;24.40;56.60
51476;DHT22;37554;50.362;7.568;2023-10-08T10:14:18;24.60;56.20
51476;DHT22;37554;50.362;7.568;2023-10-08T10:19:36;24.90;54.90
51476;DHT22;37554;50.362;7.568;2023-10-08T10:22:02;24.90;54.50
51476;DHT22;37554;50.362;7.568;2023-10-08T10:24:33;24.70;54.80
51476;DHT22;37554;50.362;7.568;2023-10-08T10:27:14;24.50;54.70
51476;DHT22;37554;50.362;7.568;2023-10-08T10:29:41;24.40;54.60
51476;DHT22;37554;50.362;7.568;2023-10-08T10:32:14;24.30;55.00
51476;DHT22;37554;50.362;7.568;2023-10-08T10:34:44;24.30;55.10
51476;DHT22;37554;50.362;7.568;2023-10-08T10:37:13;24.30;55.10
51476;DHT22;37554;50.362;7.568;2023-10-08T10:39:57;24.50;55.50
51476;DHT22;37554;50.362;7.568;2023-10-08T10:42:26;24.70;54.80
51476;DHT22;37554;50.362;7.568;2023-10-08T10:44:54;24.80;54.60
51476;DHT22;37554;50.362;7.568;2023-10-08T10:47:21;24.70;54.40
51476;DHT22;37554;50.362;7.568;2023-10-08T10:49:49;24.60;54.70
51476;DHT22;37554;50.362;7.568;2023-10-08T10:52:26;24.60;55.40
51476;DHT22;37554;50.362;7.568;2023-10-08T10:55:04;24.70;55.60
51476;DHT22;37554;50.362;7.568;2023-10-08T10:57:52;24.70;54.80
51476;DHT22;37554;50.362;7.568;2023-10-08T11:00:25;24.70;54.80
51476;DHT22;37554;50.362;7.568;2023-10-08T11:02:57;24.50;54.70
51476;DHT22;37554;50.362;7.568;2023-10-08T11:05:29;24.40;55.20
51476;DHT22;37554;50.362;7.568;2023-10-08T11:07:57;24.40;55.50
51476;DHT22;37554;50.362;7.568;2023-10-08T11:10:33;24.40;55.50
51476;DHT22;37554;50.362;7.568;2023-10-08T11:13:00;24.50;56.20
51476;DHT22;37554;50.362;7.568;2023-10-08T11:15:29;24.40;55.80
51476;DHT22;37554;50.362;7.568;2023-10-08T11:18:19;24.40;55.40
51476;DHT22;37554;50.362;7.568;2023-10-08T11:20:45;24.40;55.60
51476;DHT22;37554;50.362;7.568;2023-10-08T11:23:33;24.30;55.60
51476;DHT22;37554;50.362;7.568;2023-10-08T11:26:00;24.20;54.80
51476;DHT22;37554;50.362;7.568;2023-10-08T11:31:03;24.10;55.80
51476;DHT22;37554;50.362;7.568;2023-10-08T11:33:37;24.10;55.50
51476;DHT22;37554;50.362;7.568;2023-10-08T11:36:05;24.20;55.60
51476;DHT22;37554;50.362;7.568;2023-10-08T11:38:41;24.40;54.70
51476;DHT22;37554;50.362;7.568;2023-10-08T11:41:17;25.00;53.30
51476;DHT22;37554;50.362;7.568;2023-10-08T11:43:52;25.70;51.70
51476;DHT22;37554;50.362;7.568;2023-10-08T11:46:29;26.30;50.70
51476;DHT22;37554;50.362;7.568;2023-10-08T11:49:04;26.90;49.70
51476;DHT22;37554;50.362;7.568;2023-10-08T11:51:36;27.50;48.90
51476;DHT22;37554;50.362;7.568;2023-10-08T11:54:02;27.80;47.90
51476;DHT22;37554;50.362;7.568;2023-10-08T11:56:30;27.90;47.60
51476;DHT22;37554;50.362;7.568;2023-10-08T11:58:57;27.90;47.80
51476;DHT22;37554;50.362;7.568;2023-10-08T12:01:24;27.80;47.80
51476;DHT22;37554;50.362;7.568;2023-10-08T12:03:50;27.80;48.00
51476;DHT22;37554;50.362;7.568;2023-10-08T12:06:16;27.60;47.90
51476;DHT22;37554;50.362;7.568;2023-10-08T12:08:47;27.40;48.20
51476;DHT22;37554;50.362;7.568;2023-10-08T12:11:19;27.30;48.20
51476;DHT22;37554;50.362;7.568;2023-10-08T12:13:45;27.10;48.70
51476;DHT22;37554;50.362;7.568;2023-10-08T12:16:15;27.10;48.80
51476;DHT22;37554;50.362;7.568;2023-10-08T12:18:48;27.00;48.90
51476;DHT22;37554;50.362;7.568;2023-10-08T12:21:15;27.00;49.20
51476;DHT22;37554;50.362;7.568;2023-10-08T12:23:42;27.00;49.40
51476;DHT22;37554;50.362;7.568;2023-10-08T12:26:15;27.00;49.00
51476;DHT22;37554;50.362;7.568;2023-10-08T12:28:42;27.10;48.90
51476;DHT22;37554;50.362;7.568;2023-10-08T12:31:11;27.20;48.90
51476;DHT22;37554;50.362;7.568;2023-10-08T12:33:37;27.60;48.90
51476;DHT22;37554;50.362;7.568;2023-10-08T12:36:03;28.00;48.40
51476;DHT22;37554;50.362;7.568;2023-10-08T12:38:39;28.30;48.00
51476;DHT22;37554;50.362;7.568;2023-10-08T12:41:07;28.70;47.80
51476;DHT22;37554;50.362;7.568;2023-10-08T12:43:43;29.00;47.40
51476;DHT22;37554;50.362;7.568;2023-10-08T12:46:12;29.30;47.10
51476;DHT22;37554;50.362;7.568;2023-10-08T12:48:46;29.60;46.90
51476;DHT22;37554;50.362;7.568;2023-10-08T12:51:18;29.80;46.60
51476;DHT22;37554;50.362;7.568;2023-10-08T12:53:46;30.10;46.40
51476;DHT22;37554;50.362;7.568;2023-10-08T12:56:25;30.20;46.20
51476;DHT22;37554;50.362;7.568;2023-10-08T12:59:09;30.40;45.90
51476;DHT22;37554;50.362;7.568;2023-10-08T13:01:45;30.30;45.70
51476;DHT22;37554;50.362;7.568;2023-10-08T13:04:18;30.20;45.80
51476;DHT22;37554;50.362;7.568;2023-10-08T13:06:52;30.00;46.00
51476;DHT22;37554;50.362;7.568;2023-10-08T13:09:22;29.70;46.30
51476;DHT22;37554;50.362;7.568;2023-10-08T13:11:48;29.50;46.40
51476;DHT22;37554;50.362;7.568;2023-10-08T13:14:13;29.40;46.70
51476;DHT22;37554;50.362;7.568;2023-10-08T13:16:39;29.30;47.00
51476;DHT22;37554;50.362;7.568;2023-10-08T13:19:05;29.10;47.00
51476;DHT22;37554;50.362;7.568;2023-10-08T13:21:33;29.00;47.20
51476;DHT22;37554;50.362;7.568;2023-10-08T13:23:59;28.90;47.40
51476;DHT22;37554;50.362;7.568;2023-10-08T13:26:26;28.80;47.50
51476;DHT22;37554;50.362;7.568;2023-10-08T13:28:57;28.60;47.70
51476;DHT22;37554;50.362;7.568;2023-10-08T13:31:24;28.60;48.00
51476;DHT22;37554;50.362;7.568;2023-10-08T13:33:50;28.50;48.10
51476;DHT22;37554;50.362;7.568;2023-10-08T13:36:17;28.40;48.20
51476;DHT22;37554;50.362;7.568;2023-10-08T13:38:43;28.30;48.50
51476;DHT22;37554;50.362;7.568;2023-10-08T13:41:11;28.30;48.60
51476;DHT22;37554;50.362;7.568;2023-10-08T13:43:48;28.30;48.70
51476;DHT22;37554;50.362;7.568;2023-10-08T13:46:17;28.40;48.80
51476;DHT22;37554;50.362;7.568;2023-10-08T13:48:44;28.50;48.70
51476;DHT22;37554;50.362;7.568;2023-10-08T13:51:14;28.70;48.60
51476;DHT22;37554;50.362;7.568;2023-10-08T13:53:41;28.80;48.30
51476;DHT22;37554;50.362;7.568;2023-10-08T13:56:10;29.10;48.00
51476;DHT22;37554;50.362;7.568;2023-10-08T13:58:37;29.30;47.70
51476;DHT22;37554;50.362;7.568;2023-10-08T14:01:07;29.30;47.50
51476;DHT22;37554;50.362;7.568;2023-10-08T14:03:48;29.30;47.50
51476;DHT22;37554;50.362;7.568;2023-10-08T14:06:17;29.40;47.60
51476;DHT22;37554;50.362;7.568;2023-10-08T14:08:43;29.30;47.50
51476;DHT22;37554;50.362;7.568;2023-10-08T14:11:20;29.20;47.40
51476;DHT22;37554;50.362;7.568;2023-10-08T14:13:50;29.20;47.40
51476;DHT22;37554;50.362;7.568;2023-10-08T14:16:16;29.20;47.50
51476;DHT22;37554;50.362;7.568;2023-10-08T14:18:44;29.20;47.40
51476;DHT22;37554;50.362;7.568;2023-10-08T14:21:16;29.30;47.40
51476;DHT22;37554;50.362;7.568;2023-10-08T14:23:43;29.50;47.30
51476;DHT22;37554;50.362;7.568;2023-10-08T14:26:10;29.50;47.20
51476;DHT22;37554;50.362;7.568;2023-10-08T14:28:36;29.50;47.10
51476;DHT22;37554;50.362;7.568;2023-10-08T14:31:16;29.40;47.10
51476;DHT22;37554;50.362;7.568;2023-10-08T14:33:43;29.40;47.20
51476;DHT22;37554;50.362;7.568;2023-10-08T14:36:24;29.30;47.20
51476;DHT22;37554;50.362;7.568;2023-10-08T14:39:09;29.30;47.30
51476;DHT22;37554;50.362;7.568;2023-10-08T14:41:53;29.20;47.20
51476;DHT22;37554;50.362;7.568;2023-10-08T14:44:38;29.20;47.20
51476;DHT22;37554;50.362;7.568;2023-10-08T14:47:04;29.30;47.30
51476;DHT22;37554;50.362;7.568;2023-10-08T14:49:31;29.30;47.10
51476;DHT22;37554;50.362;7.568;2023-10-08T14:51:58;29.30;47.20
51476;DHT22;37554;50.362;7.568;2023-10-08T14:54:23;29.20;47.20
51476;DHT22;37554;50.362;7.568;2023-10-08T14:56:50;29.20;47.30
51476;DHT22;37554;50.362;7.568;2023-10-08T14:59:16;29.20;46.70
51476;DHT22;37554;50.362;7.568;2023-10-08T15:01:46;29.10;46.10
51476;DHT22;37554;50.362;7.568;2023-10-08T15:04:12;29.00;46.00
51476;DHT22;37554;50.362;7.568;2023-10-08T15:06:38;28.80;46.20
51476;DHT22;37554;50.362;7.568;2023-10-08T15:09:05;28.60;46.40
51476;DHT22;37554;50.362;7.568;2023-10-08T15:11:33;28.50;46.40
51476;DHT22;37554;50.362;7.568;2023-10-08T15:14:04;28.40;46.60
51476;DHT22;37554;50.362;7.568;2023-10-08T15:16:36;28.30;46.80
51476;DHT22;37554;50.362;7.568;2023-10-08T15:19:02;28.20;47.00
51476;DHT22;37554;50.362;7.568;2023-10-08T15:21:30;28.00;47.10
51476;DHT22;37554;50.362;7.568;2023-10-08T15:23:59;28.00;47.30
51476;DHT22;37554;50.362;7.568;2023-10-08T15:26:31;27.90;47.30
51476;DHT22;37554;50.362;7.568;2023-10-08T15:28:58;27.80;47.40
51476;DHT22;37554;50.362;7.568;2023-10-08T15:31:24;27.70;47.60
51476;DHT22;37554;50.362;7.568;2023-10-08T15:33:50;27.60;47.70
51476;DHT22;37554;50.362;7.568;2023-10-08T15:36:16;27.60;47.90
51476;DHT22;37554;50.362;7.568;2023-10-08T15:38:42;27.50;48.00
51476;DHT22;37554;50.362;7.568;2023-10-08T15:41:07;27.40;48.20
51476;DHT22;37554;50.362;7.568;2023-10-08T15:43:33;27.30;48.30
51476;DHT22;37554;50.362;7.568;2023-10-08T15:45:59;27.20;48.50
51476;DHT22;37554;50.362;7.568;2023-10-08T15:48:27;27.20;48.70
51476;DHT22;37554;50.362;7.568;2023-10-08T15:50:54;27.20;48.70
51476;DHT22;37554;50.362;7.568;2023-10-08T15:53:19;27.10;48.80
51476;DHT22;37554;50.362;7.568;2023-10-08T15:55:45;27.10;48.90
51476;DHT22;37554;50.362;7.568;2023-10-08T15:58:12;27.10;48.90
51476;DHT22;37554;50.362;7.568;2023-10-08T16:00:38;27.00;49.10
51476;DHT22;37554;50.362;7.568;2023-10-08T16:03:04;26.90;49.10
51476;DHT22;37554;50.362;7.568;2023-10-08T16:05:32;26.90;49.30